sensor_id;sensor_type;location;lat;lon;timestamp;pressure;altitude;pressure_sealevel;temperature;humidity
77250;BME280;66287;42.658;27.568;2023-03-20T00:01:59;100642.59;;;11.98;57.57
77250;BME280;66287;42.658;27.568;2023-03-20T00:04:25;100640.91;;;11.97;57.56
77250;BME280;66287;42.658;27.568;2023-03-20T00:06:50;100630.44;;;11.94;57.41
77250;BME280;66287;42.658;27.568;2023-03-20T00:09:16;100620.81;;;11.91;57.78
77250;BME280;66287;42.658;27.568;2023-03-20T00:11:51;100630.00;;;11.90;57.71
77250;BME280;66287;42.658;27.568;2023-03-20T00:14:18;100635.84;;;11.87;57.84
77250;BME280;66287;42.658;27.568;2023-03-20T00:16:45;100635.84;;;11.87;57.96
77250;BME280;66287;42.658;27.568;2023-03-20T00:19:18;100634.16;;;11.86;57.61
77250;BME280;66287;42.658;27.568;2023-03-20T00:21:45;100624.72;;;11.82;57.78
77250;BME280;66287;42.658;27.568;2023-03-20T00:24:11;100625.97;;;11.80;58.20
77250;BME280;66287;42.658;27.568;2023-03-20T00:26:37;100628.25;;;11.76;58.08
77250;BME280;66287;42.658;27.568;2023-03-20T00:29:04;100616.72;;;11.74;58.18
77250;BME280;66287;42.658;27.568;2023-03-20T00:31:30;100621.50;;;11.72;58.10
77250;BME280;66287;42.658;27.568;2023-03-20T00:34:00;100616.28;;;11.70;58.30
77250;BME280;66287;42.658;27.568;2023-03-20T00:36:26;100615.44;;;11.70;58.18
77250;BME280;66287;42.658;27.568;2023-03-20T00:38:52;100612.72;;;11.70;58.26
77250;BME280;66287;42.658;27.568;2023-03-20T00:43:42;100613.13;;;11.67;58.03
77250;BME280;66287;42.658;27.568;2023-03-20T00:46:11;100605.19;;;11.65;58.08
77250;BME280;66287;42.658;27.568;2023-03-20T00:48:37;100618.94;;;11.64;58.13
77250;BME280;66287;42.658;27.568;2023-03-20T00:51:04;100606.81;;;11.60;58.76
77250;BME280;66287;42.658;27.568;2023-03-20T00:53:30;100614.34;;;11.58;58.57
77250;BME280;66287;42.658;27.568;2023-03-20T00:55:55;100606.38;;;11.56;58.78
77250;BME280;66287;42.658;27.568;2023-03-20T00:58:21;100612.66;;;11.57;58.64
77250;BME280;66287;42.658;27.568;2023-03-20T01:00:46;100612.84;;;11.55;58.70
77250;BME280;66287;42.658;27.568;2023-03-20T01:05:37;100613.44;;;11.51;58.70
77250;BME280;66287;42.658;27.568;2023-03-20T01:08:05;100602.78;;;11.49;58.71
77250;BME280;66287;42.658;27.568;2023-03-20T01:10:31;100602.97;;;11.48;58.96
77250;BME280;66287;42.658;27.568;2023-03-20T01:12:57;100594.19;;;11.46;58.86
77250;BME280;66287;42.658;27.568;2023-03-20T01:15:25;100594.19;;;11.46;59.01
77250;BME280;66287;42.658;27.568;2023-03-20T01:17:51;100592.53;;;11.45;59.14
77250;BME280;66287;42.658;27.568;2023-03-20T01:20:24;100591.03;;;11.42;58.72
77250;BME280;66287;42.658;27.568;2023-03-20T01:22:50;100592.28;;;11.39;58.82
77250;BME280;66287;42.658;27.568;2023-03-20T01:25:16;100592.50;;;11.38;58.96
77250;BME280;66287;42.658;27.568;2023-03-20T01:27:45;100581.19;;;11.34;58.85
77250;BME280;66287;42.658;27.568;2023-03-20T01:30:16;100593.94;;;11.34;59.36
77250;BME280;66287;42.658;27.568;2023-03-20T01:32:42;100596.19;;;11.30;59.14
77250;BME280;66287;42.658;27.568;2023-03-20T01:35:12;100591.78;;;11.29;59.43
77250;BME280;66287;42.658;27.568;2023-03-20T01:37:38;100584.88;;;11.27;59.32
77250;BME280;66287;42.658;27.568;2023-03-20T01:40:07;100585.09;;;11.25;59.20
77250;BME280;66287;42.658;27.568;2023-03-20T01:42:37;100582.75;;;11.22;59.44
77250;BME280;66287;42.658;27.568;2023-03-20T01:45:09;100586.50;;;11.21;59.31
77250;BME280;66287;42.658;27.568;2023-03-20T01:47:36;100584.84;;;11.20;59.52
77250;BME280;66287;42.658;27.568;2023-03-20T01:52:42;100583.56;;;11.16;59.48
77250;BME280;66287;42.658;27.568;2023-03-20T01:55:08;100585.44;;;11.16;59.79
77250;BME280;66287;42.658;27.568;2023-03-20T01:57:34;100580.22;;;11.14;59.61
77250;BME280;66287;42.658;27.568;2023-03-20T02:00:05;100581.44;;;11.12;59.88
77250;BME280;66287;42.658;27.568;2023-03-20T02:02:40;100577.25;;;11.09;60.15
77250;BME280;66287;42.658;27.568;2023-03-20T02:05:08;100587.06;;;11.10;60.03
77250;BME280;66287;42.658;27.568;2023-03-20T02:07:35;100581.00;;;11.08;59.82
77250;BME280;66287;42.658;27.568;2023-03-20T02:10:04;100585.38;;;11.09;60.12
77250;BME280;66287;42.658;27.568;2023-03-20T02:12:44;100582.03;;;11.07;60.11
77250;BME280;66287;42.658;27.568;2023-03-20T02:15:14;100585.78;;;11.06;59.96
77250;BME280;66287;42.658;27.568;2023-03-20T02:18:01;100580.53;;;11.04;59.90
77250;BME280;66287;42.658;27.568;2023-03-20T02:20:37;100585.50;;;11.01;59.70
77250;BME280;66287;42.658;27.568;2023-03-20T02:23:18;100581.53;;;10.97;60.20
77250;BME280;66287;42.658;27.568;2023-03-20T02:39:05;100551.00;;;10.88;60.23
77250;BME280;66287;42.658;27.568;2023-03-20T02:51:58;100563.00;;;10.79;60.75
77250;BME280;66287;42.658;27.568;2023-03-20T02:54:40;100565.94;;;10.78;60.49
77250;BME280;66287;42.658;27.568;2023-03-20T03:02:38;100556.06;;;10.70;60.91
77250;BME280;66287;42.658;27.568;2023-03-20T03:05:14;100552.25;;;10.64;61.02
77250;BME280;66287;42.658;27.568;2023-03-20T03:07:41;100554.31;;;10.62;61.03
77250;BME280;66287;42.658;27.568;2023-03-20T03:10:09;100556.38;;;10.60;60.91
77250;BME280;66287;42.658;27.568;2023-03-20T03:12:39;100564.31;;;10.62;60.73
77250;BME280;66287;42.658;27.568;2023-03-20T03:15:12;100563.91;;;10.58;61.17
77250;BME280;66287;42.658;27.568;2023-03-20T03:17:39;100562.22;;;10.57;60.94
77250;BME280;66287;42.658;27.568;2023-03-20T03:20:11;100547.63;;;10.58;61.23
77250;BME280;66287;42.658;27.568;2023-03-20T03:22:39;100538.84;;;10.56;61.52
77250;BME280;66287;42.658;27.568;2023-03-20T03:25:04;100545.69;;;10.52;61.32
77250;BME280;66287;42.658;27.568;2023-03-20T03:27:35;100535.25;;;10.49;61.45
77250;BME280;66287;42.658;27.568;2023-03-20T03:30:11;100536.66;;;10.45;61.47
77250;BME280;66287;42.658;27.568;2023-03-20T03:32:41;100533.94;;;10.45;61.39
77250;BME280;66287;42.658;27.568;2023-03-20T03:35:13;100530.59;;;10.43;61.04
77250;BME280;66287;42.658;27.568;2023-03-20T03:45:05;100533.91;;;10.39;61.43
77250;BME280;66287;42.658;27.568;2023-03-20T03:47:34;100537.84;;;10.36;61.62
77250;BME280;66287;42.658;27.568;2023-03-20T03:50:04;100539.69;;;10.35;61.28
77250;BME280;66287;42.658;27.568;2023-03-20T03:52:32;100539.88;;;10.34;61.56
77250;BME280;66287;42.658;27.568;2023-03-20T03:57:45;100536.53;;;10.32;61.60
77250;BME280;66287;42.658;27.568;2023-03-20T04:00:16;100543.63;;;10.33;61.48
77250;BME280;66287;42.658;27.568;2023-03-20T04:02:44;100552.13;;;10.30;61.16
77250;BME280;66287;42.658;27.568;2023-03-20T04:05:11;100549.81;;;10.27;61.76
77250;BME280;66287;42.658;27.568;2023-03-20T04:07:37;100548.13;;;10.26;62.26
77250;BME280;66287;42.658;27.568;2023-03-20T04:10:03;100545.81;;;10.23;62.24
77250;BME280;66287;42.658;27.568;2023-03-20T04:14:58;100549.16;;;10.25;62.26
77250;BME280;66287;42.658;27.568;2023-03-20T04:17:25;100545.16;;;10.21;61.37
77250;BME280;66287;42.658;27.568;2023-03-20T04:19:51;100540.13;;;10.18;62.34
77250;BME280;66287;42.658;27.568;2023-03-20T04:22:17;100535.66;;;10.10;61.77
77250;BME280;66287;42.658;27.568;2023-03-20T04:24:42;100539.56;;;10.08;62.15
77250;BME280;66287;42.658;27.568;2023-03-20T04:27:08;100542.00;;;10.02;62.37
77250;BME280;66287;42.658;27.568;2023-03-20T04:29:37;100538.47;;;10.02;62.99
77250;BME280;66287;42.658;27.568;2023-03-20T04:32:22;100545.94;;;10.00;62.86
77250;BME280;66287;42.658;27.568;2023-03-20T04:35:17;100548.06;;;10.05;62.63
77250;BME280;66287;42.658;27.568;2023-03-20T04:37:51;100546.00;;;10.07;62.62
77250;BME280;66287;42.658;27.568;2023-03-20T04:40:17;100545.81;;;10.08;62.24
77250;BME280;66287;42.658;27.568;2023-03-20T04:42:43;100546.28;;;10.12;63.04
77250;BME280;66287;42.658;27.568;2023-03-20T04:45:09;100537.97;;;10.13;62.69
77250;BME280;66287;42.658;27.568;2023-03-20T04:47:37;100545.72;;;10.16;62.46
77250;BME280;66287;42.658;27.568;2023-03-20T04:50:03;100541.81;;;10.19;62.77
77250;BME280;66287;42.658;27.568;2023-03-20T04:52:29;100547.75;;;10.29;62.69
77250;BME280;66287;42.658;27.568;2023-03-20T04:54:55;100549.56;;;10.43;62.43
77250;BME280;66287;42.658;27.568;2023-03-20T04:57:20;100546.00;;;10.64;62.18
77250;BME280;66287;42.658;27.568;2023-03-20T04:59:46;100542.22;;;10.86;61.98
77250;BME280;66287;42.658;27.568;2023-03-20T05:02:11;100551.81;;;11.10;62.05
77250;BME280;66287;42.658;27.568;2023-03-20T05:04:40;100550.31;;;11.35;62.03
77250;BME280;66287;42.658;27.568;2023-03-20T05:07:05;100548.38;;;11.64;61.86
77250;BME280;66287;42.658;27.568;2023-03-20T05:09:39;100546.44;;;11.92;61.43
77250;BME280;66287;42.658;27.568;2023-03-20T05:12:07;100541.72;;;12.21;61.18
77250;BME280;66287;42.658;27.568;2023-03-20T05:14:52;100546.41;;;12.53;60.90
77250;BME280;66287;42.658;27.568;2023-03-20T05:17:42;100544.31;;;12.88;60.43
77250;BME280;66287;42.658;27.568;2023-03-20T05:20:10;100544.31;;;13.21;60.15
77250;BME280;66287;42.658;27.568;2023-03-20T05:22:54;100534.63;;;13.58;59.70
77250;BME280;66287;42.658;27.568;2023-03-20T05:25:39;100540.34;;;13.95;58.39
77250;BME280;66287;42.658;27.568;2023-03-20T05:28:29;100544.75;;;14.34;58.03
77250;BME280;66287;42.658;27.568;2023-03-20T05:31:12;100550.63;;;14.69;57.23
77250;BME280;66287;42.658;27.568;2023-03-20T05:33:56;100544.88;;;15.02;56.24
77250;BME280;66287;42.658;27.568;2023-03-20T05:36:29;100544.81;;;15.33;56.01
77250;BME280;66287;42.658;27.568;2023-03-20T05:39:33;100546.69;;;15.76;55.38
77250;BME280;66287;42.658;27.568;2023-03-20T05:42:17;100537.38;;;16.13;54.96
77250;BME280;66287;42.658;27.568;2023-03-20T05:44:52;100538.31;;;16.49;54.25
77250;BME280;66287;42.658;27.568;2023-03-20T05:47:32;100542.84;;;16.85;53.23
77250;BME280;66287;42.658;27.568;2023-03-20T05:50:24;100531.66;;;17.21;51.87
77250;BME280;66287;42.658;27.568;2023-03-20T05:53:04;100541.53;;;17.58;50.48
77250;BME280;66287;42.658;27.568;2023-03-20T05:55:51;100545.19;;;17.98;50.41
77250;BME280;66287;42.658;27.568;2023-03-20T05:58:44;100551.44;;;18.39;44.16
77250;BME280;66287;42.658;27.568;2023-03-20T06:01:28;100551.56;;;18.72;44.29
77250;BME280;66287;42.658;27.568;2023-03-20T06:04:17;100547.00;;;18.78;43.02
77250;BME280;66287;42.658;27.568;2023-03-20T06:07:05;100551.38;;;18.34;43.47
77250;BME280;66287;42.658;27.568;2023-03-20T06:09:31;100553.59;;;18.08;44.87
77250;BME280;66287;42.658;27.568;2023-03-20T06:11:59;100558.94;;;17.40;45.49
77250;BME280;66287;42.658;27.568;2023-03-20T06:14:25;100564.50;;;16.86;47.37
77250;BME280;66287;42.658;27.568;2023-03-20T06:16:56;100554.19;;;16.29;48.37
77250;BME280;66287;42.658;27.568;2023-03-20T06:19:22;100562.63;;;16.27;49.05
77250;BME280;66287;42.658;27.568;2023-03-20T06:21:49;100563.19;;;16.17;46.76
77250;BME280;66287;42.658;27.568;2023-03-20T06:24:17;100559.81;;;16.34;48.38
77250;BME280;66287;42.658;27.568;2023-03-20T06:26:43;100565.03;;;16.35;48.04
77250;BME280;66287;42.658;27.568;2023-03-20T06:29:10;100556.94;;;16.40;48.53
77250;BME280;66287;42.658;27.568;2023-03-20T06:31:35;100564.28;;;16.28;48.29
77250;BME280;66287;42.658;27.568;2023-03-20T06:34:02;100560.06;;;16.44;48.04
77250;BME280;66287;42.658;27.568;2023-03-20T06:36:31;100556.81;;;17.18;49.64
77250;BME280;66287;42.658;27.568;2023-03-20T06:39:03;100556.06;;;18.21;46.67
77250;BME280;66287;42.658;27.568;2023-03-20T06:41:29;100557.25;;;19.16;45.36
77250;BME280;66287;42.658;27.568;2023-03-20T06:43:55;100557.63;;;19.80;42.54
77250;BME280;66287;42.658;27.568;2023-03-20T06:46:24;100560.00;;;20.15;40.06
77250;BME280;66287;42.658;27.568;2023-03-20T06:48:49;100557.06;;;20.70;40.71
77250;BME280;66287;42.658;27.568;2023-03-20T06:51:16;100558.78;;;20.81;40.52
77250;BME280;66287;42.658;27.568;2023-03-20T06:53:49;100562.81;;;20.95;39.75
77250;BME280;66287;42.658;27.568;2023-03-20T06:56:21;100563.97;;;21.05;38.37
77250;BME280;66287;42.658;27.568;2023-03-20T06:58:46;100562.94;;;20.84;39.09
77250;BME280;66287;42.658;27.568;2023-03-20T07:01:12;100562.63;;;20.48;38.07
77250;BME280;66287;42.658;27.568;2023-03-20T07:03:40;100564.78;;;20.24;38.56
77250;BME280;66287;42.658;27.568;2023-03-20T07:06:06;100557.88;;;20.00;38.78
77250;BME280;66287;42.658;27.568;2023-03-20T07:08:32;100560.63;;;20.44;40.99
77250;BME280;66287;42.658;27.568;2023-03-20T07:10:58;100552.00;;;20.13;37.56
77250;BME280;66287;42.658;27.568;2023-03-20T07:13:23;100554.75;;;20.13;40.40
77250;BME280;66287;42.658;27.568;2023-03-20T07:15:51;100555.22;;;20.05;38.96
77250;BME280;66287;42.658;27.568;2023-03-20T07:18:20;100563.03;;;20.13;39.81
77250;BME280;66287;42.658;27.568;2023-03-20T07:20:47;100559.75;;;19.94;38.51
77250;BME280;66287;42.658;27.568;2023-03-20T07:23:15;100560.34;;;19.75;39.01
77250;BME280;66287;42.658;27.568;2023-03-20T07:25:40;100559.25;;;19.76;40.08
77250;BME280;66287;42.658;27.568;2023-03-20T07:28:06;100559.94;;;20.10;38.79
77250;BME280;66287;42.658;27.568;2023-03-20T07:30:33;100556.28;;;20.26;39.05
77250;BME280;66287;42.658;27.568;2023-03-20T07:32:59;100556.41;;;20.63;40.72
77250;BME280;66287;42.658;27.568;2023-03-20T07:35:28;100547.34;;;20.14;39.83
77250;BME280;66287;42.658;27.568;2023-03-20T07:37:54;100555.00;;;20.34;40.04
77250;BME280;66287;42.658;27.568;2023-03-20T07:40:20;100551.72;;;20.90;37.96
77250;BME280;66287;42.658;27.568;2023-03-20T07:42:52;100548.03;;;21.12;38.01
77250;BME280;66287;42.658;27.568;2023-03-20T07:45:43;100555.97;;;21.35;38.39
77250;BME280;66287;42.658;27.568;2023-03-20T07:48:09;100551.28;;;21.88;35.52
77250;BME280;66287;42.658;27.568;2023-03-20T07:50:34;100552.38;;;22.59;35.25
77250;BME280;66287;42.658;27.568;2023-03-20T07:53:00;100553.81;;;22.77;32.86
77250;BME280;66287;42.658;27.568;2023-03-20T07:55:25;100547.03;;;22.17;34.35
77250;BME280;66287;42.658;27.568;2023-03-20T07:57:51;100550.69;;;22.58;35.02
77250;BME280;66287;42.658;27.568;2023-03-20T08:00:17;100553.28;;;23.06;33.03
77250;BME280;66287;42.658;27.568;2023-03-20T08:02:43;100549.56;;;22.39;35.94
77250;BME280;66287;42.658;27.568;2023-03-20T08:05:08;100561.97;;;21.27;34.79
77250;BME280;66287;42.658;27.568;2023-03-20T08:07:34;100560.09;;;21.33;37.74
77250;BME280;66287;42.658;27.568;2023-03-20T08:10:00;100554.44;;;20.85;36.33
77250;BME280;66287;42.658;27.568;2023-03-20T08:12:25;100564.75;;;21.00;36.12
77250;BME280;66287;42.658;27.568;2023-03-20T08:14:51;100555.66;;;21.31;34.91
77250;BME280;66287;42.658;27.568;2023-03-20T08:17:16;100562.13;;;20.83;35.67
77250;BME280;66287;42.658;27.568;2023-03-20T08:19:42;100556.38;;;21.54;35.54
77250;BME280;66287;42.658;27.568;2023-03-20T08:22:07;100550.34;;;22.14;34.12
77250;BME280;66287;42.658;27.568;2023-03-20T08:24:33;100544.91;;;22.65;33.64
77250;BME280;66287;42.658;27.568;2023-03-20T08:26:58;100551.06;;;23.02;31.81
77250;BME280;66287;42.658;27.568;2023-03-20T08:29:24;100538.59;;;23.25;32.66
77250;BME280;66287;42.658;27.568;2023-03-20T08:31:49;100537.97;;;23.69;32.81
77250;BME280;66287;42.658;27.568;2023-03-20T08:34:14;100536.59;;;23.61;31.78
77250;BME280;66287;42.658;27.568;2023-03-20T08:36:40;100546.50;;;23.88;32.17
77250;BME280;66287;42.658;27.568;2023-03-20T08:39:06;100541.91;;;24.22;30.42
77250;BME280;66287;42.658;27.568;2023-03-20T08:41:32;100547.31;;;24.53;29.97
77250;BME280;66287;42.658;27.568;2023-03-20T08:43:57;100551.50;;;24.45;31.43
77250;BME280;66287;42.658;27.568;2023-03-20T08:46:22;100550.09;;;23.88;31.35
77250;BME280;66287;42.658;27.568;2023-03-20T08:48:48;100548.34;;;24.62;32.25
77250;BME280;66287;42.658;27.568;2023-03-20T08:51:13;100548.56;;;24.26;31.85
77250;BME280;66287;42.658;27.568;2023-03-20T08:53:39;100549.81;;;23.85;31.21
77250;BME280;66287;42.658;27.568;2023-03-20T08:56:04;100544.41;;;22.98;33.90
77250;BME280;66287;42.658;27.568;2023-03-20T08:58:30;100536.31;;;23.68;32.97
77250;BME280;66287;42.658;27.568;2023-03-20T09:00:55;100534.34;;;24.38;32.63
77250;BME280;66287;42.658;27.568;2023-03-20T09:03:21;100536.84;;;24.79;32.50
77250;BME280;66287;42.658;27.568;2023-03-20T09:05:47;100533.34;;;24.68;29.91
77250;BME280;66287;42.658;27.568;2023-03-20T09:08:13;100534.78;;;24.60;31.33
77250;BME280;66287;42.658;27.568;2023-03-20T09:10:39;100520.00;;;23.66;31.83
77250;BME280;66287;42.658;27.568;2023-03-20T09:13:07;100520.59;;;24.28;32.66
77250;BME280;66287;42.658;27.568;2023-03-20T09:15:33;100520.41;;;24.97;31.46
77250;BME280;66287;42.658;27.568;2023-03-20T09:17:58;100522.78;;;25.62;30.84
77250;BME280;66287;42.658;27.568;2023-03-20T09:20:23;100518.44;;;25.27;29.45
77250;BME280;66287;42.658;27.568;2023-03-20T09:22:49;100513.25;;;25.97;29.44
77250;BME280;66287;42.658;27.568;2023-03-20T09:25:14;100504.66;;;26.73;27.95
77250;BME280;66287;42.658;27.568;2023-03-20T09:27:40;100492.19;;;27.03;26.94
77250;BME280;66287;42.658;27.568;2023-03-20T09:30:06;100495.72;;;26.58;29.13
77250;BME280;66287;42.658;27.568;2023-03-20T09:32:32;100490.22;;;26.71;30.13
77250;BME280;66287;42.658;27.568;2023-03-20T09:34:58;100488.72;;;27.39;29.50
77250;BME280;66287;42.658;27.568;2023-03-20T09:37:24;100486.69;;;26.98;27.66
77250;BME280;66287;42.658;27.568;2023-03-20T09:39:50;100488.78;;;26.74;28.60
77250;BME280;66287;42.658;27.568;2023-03-20T09:42:31;100477.91;;;26.91;30.39
77250;BME280;66287;42.658;27.568;2023-03-20T09:52:59;100486.25;;;27.24;28.77
77250;BME280;66287;42.658;27.568;2023-03-20T09:55:33;100475.50;;;26.85;27.95
77250;BME280;66287;42.658;27.568;2023-03-20T09:58:22;100476.25;;;28.05;26.96
77250;BME280;66287;42.658;27.568;2023-03-20T10:00:45;100480.56;;;28.61;27.45
77250;BME280;66287;42.658;27.568;2023-03-20T10:05:48;100471.19;;;28.07;27.97
77250;BME280;66287;42.658;27.568;2023-03-20T10:08:15;100467.00;;;28.45;27.20
77250;BME280;66287;42.658;27.568;2023-03-20T10:18:24;100453.47;;;28.39;25.98
77250;BME280;66287;42.658;27.568;2023-03-20T10:20:54;100453.03;;;28.45;25.54
77250;BME280;66287;42.658;27.568;2023-03-20T10:23:25;100441.94;;;27.27;28.08
77250;BME280;66287;42.658;27.568;2023-03-20T10:25:55;100443.91;;;27.95;26.92
77250;BME280;66287;42.658;27.568;2023-03-20T10:35:59;100429.97;;;29.77;25.07
77250;BME280;66287;42.658;27.568;2023-03-20T10:40:52;100430.69;;;30.52;25.00
77250;BME280;66287;42.658;27.568;2023-03-20T10:43:31;100425.94;;;30.35;24.48
77250;BME280;66287;42.658;27.568;2023-03-20T10:46:06;100417.00;;;30.85;23.50
77250;BME280;66287;42.658;27.568;2023-03-20T10:51:02;100436.25;;;30.95;23.19
77250;BME280;66287;42.658;27.568;2023-03-20T10:53:29;100434.41;;;30.99;23.63
77250;BME280;66287;42.658;27.568;2023-03-20T10:55:57;100436.03;;;31.17;22.89
77250;BME280;66287;42.658;27.568;2023-03-20T10:58:24;100427.31;;;31.10;23.32
77250;BME280;66287;42.658;27.568;2023-03-20T11:00:51;100415.78;;;31.03;23.63
77250;BME280;66287;42.658;27.568;2023-03-20T11:03:21;100420.78;;;30.89;23.61
77250;BME280;66287;42.658;27.568;2023-03-20T11:05:48;100420.00;;;30.54;23.15
77250;BME280;66287;42.658;27.568;2023-03-20T11:08:17;100409.78;;;30.49;23.74
77250;BME280;66287;42.658;27.568;2023-03-20T11:10:45;100418.97;;;30.93;23.99
77250;BME280;66287;42.658;27.568;2023-03-20T11:13:25;100410.41;;;30.81;23.64
77250;BME280;66287;42.658;27.568;2023-03-20T11:15:51;100407.53;;;31.07;23.56
77250;BME280;66287;42.658;27.568;2023-03-20T11:18:18;100400.91;;;30.47;23.59
77250;BME280;66287;42.658;27.568;2023-03-20T11:20:45;100404.75;;;30.98;23.22
77250;BME280;66287;42.658;27.568;2023-03-20T11:23:13;100403.00;;;30.94;22.94
77250;BME280;66287;42.658;27.568;2023-03-20T11:25:45;100395.97;;;30.44;23.60
77250;BME280;66287;42.658;27.568;2023-03-20T11:31:04;100398.09;;;31.29;23.12
77250;BME280;66287;42.658;27.568;2023-03-20T11:33:31;100387.19;;;31.36;23.35
77250;BME280;66287;42.658;27.568;2023-03-20T11:35:58;100392.66;;;31.24;22.25
77250;BME280;66287;42.658;27.568;2023-03-20T11:38:23;100395.09;;;31.34;22.86
77250;BME280;66287;42.658;27.568;2023-03-20T11:40:49;100390.31;;;31.64;22.32
77250;BME280;66287;42.658;27.568;2023-03-20T11:43:21;100392.16;;;31.60;22.47
77250;BME280;66287;42.658;27.568;2023-03-20T11:45:49;100385.72;;;30.83;22.89
77250;BME280;66287;42.658;27.568;2023-03-20T11:48:19;100392.03;;;31.56;22.30
77250;BME280;66287;42.658;27.568;2023-03-20T11:50:45;100392.72;;;31.15;22.26
77250;BME280;66287;42.658;27.568;2023-03-20T11:55:45;100386.00;;;31.75;22.00
77250;BME280;66287;42.658;27.568;2023-03-20T11:58:21;100391.34;;;32.09;21.53
77250;BME280;66287;42.658;27.568;2023-03-20T12:00:47;100399.50;;;32.77;20.24
77250;BME280;66287;42.658;27.568;2023-03-20T12:06:05;100382.13;;;33.08;20.69
77250;BME280;66287;42.658;27.568;2023-03-20T12:08:31;100381.56;;;33.27;20.01
77250;BME280;66287;42.658;27.568;2023-03-20T12:11:07;100378.72;;;33.87;19.86
77250;BME280;66287;42.658;27.568;2023-03-20T12:13:39;100375.88;;;34.00;19.12
77250;BME280;66287;42.658;27.568;2023-03-20T12:16:10;100382.47;;;33.67;19.10
77250;BME280;66287;42.658;27.568;2023-03-20T12:18:44;100372.41;;;33.17;19.63
77250;BME280;66287;42.658;27.568;2023-03-20T12:23:39;100370.97;;;32.99;20.24
77250;BME280;66287;42.658;27.568;2023-03-20T12:28:37;100364.44;;;33.07;19.99
77250;BME280;66287;42.658;27.568;2023-03-20T12:33:36;100356.03;;;33.56;19.08
77250;BME280;66287;42.658;27.568;2023-03-20T12:36:08;100349.69;;;33.10;20.15
77250;BME280;66287;42.658;27.568;2023-03-20T12:38:37;100360.03;;;33.31;19.32
77250;BME280;66287;42.658;27.568;2023-03-20T12:43:34;100352.38;;;31.96;20.75
77250;BME280;66287;42.658;27.568;2023-03-20T12:46:17;100352.13;;;31.80;20.66
77250;BME280;66287;42.658;27.568;2023-03-20T12:48:53;100358.22;;;31.32;21.20
77250;BME280;66287;42.658;27.568;2023-03-20T12:59:37;100344.97;;;29.61;22.33
77250;BME280;66287;42.658;27.568;2023-03-20T13:16:50;100342.38;;;29.91;23.01
77250;BME280;66287;42.658;27.568;2023-03-20T13:19:23;100336.63;;;30.04;22.99
77250;BME280;66287;42.658;27.568;2023-03-20T13:21:57;100332.81;;;30.35;23.10
77250;BME280;66287;42.658;27.568;2023-03-20T13:27:11;100336.22;;;29.45;23.55
77250;BME280;66287;42.658;27.568;2023-03-20T13:32:26;100337.78;;;29.77;24.33
77250;BME280;66287;42.658;27.568;2023-03-20T13:37:22;100343.19;;;28.77;24.98
77250;BME280;66287;42.658;27.568;2023-03-20T13:42:26;100334.31;;;27.86;26.15
77250;BME280;66287;42.658;27.568;2023-03-20T13:44:54;100331.13;;;27.02;26.37
77250;BME280;66287;42.658;27.568;2023-03-20T13:47:22;100331.31;;;26.92;27.61
77250;BME280;66287;42.658;27.568;2023-03-20T13:49:57;100328.88;;;27.18;27.29
77250;BME280;66287;42.658;27.568;2023-03-20T13:52:27;100333.59;;;27.31;27.15
77250;BME280;66287;42.658;27.568;2023-03-20T14:05:28;100318.34;;;27.01;27.00
77250;BME280;66287;42.658;27.568;2023-03-20T14:07:59;100311.63;;;26.88;27.21
77250;BME280;66287;42.658;27.568;2023-03-20T14:10:44;100315.13;;;26.80;27.46
77250;BME280;66287;42.658;27.568;2023-03-20T14:13:13;100314.22;;;26.98;27.67
77250;BME280;66287;42.658;27.568;2023-03-20T14:15:43;100318.09;;;26.70;28.26
77250;BME280;66287;42.658;27.568;2023-03-20T14:18:14;100309.09;;;26.46;28.39
77250;BME280;66287;42.658;27.568;2023-03-20T14:20:40;100309.34;;;25.98;28.72
77250;BME280;66287;42.658;27.568;2023-03-20T14:23:14;100300.19;;;25.60;29.25
77250;BME280;66287;42.658;27.568;2023-03-20T14:25:41;100305.81;;;25.36;29.62
77250;BME280;66287;42.658;27.568;2023-03-20T14:30:46;100299.09;;;24.70;31.44
77250;BME280;66287;42.658;27.568;2023-03-20T14:35:42;100300.47;;;24.73;31.78
77250;BME280;66287;42.658;27.568;2023-03-20T14:40:56;100301.94;;;24.89;31.13
77250;BME280;66287;42.658;27.568;2023-03-20T14:45:53;100299.03;;;24.52;31.69
77250;BME280;66287;42.658;27.568;2023-03-20T14:48:26;100299.50;;;24.30;32.10
77250;BME280;66287;42.658;27.568;2023-03-20T14:53:38;100302.25;;;24.35;32.52
77250;BME280;66287;42.658;27.568;2023-03-20T14:56:07;100303.97;;;24.26;32.42
77250;BME280;66287;42.658;27.568;2023-03-20T15:01:02;100310.59;;;23.96;32.97
77250;BME280;66287;42.658;27.568;2023-03-20T15:03:28;100308.41;;;23.93;33.20
77250;BME280;66287;42.658;27.568;2023-03-20T15:05:55;100305.28;;;23.99;33.48
77250;BME280;66287;42.658;27.568;2023-03-20T15:08:23;100308.09;;;23.94;33.28
77250;BME280;66287;42.658;27.568;2023-03-20T15:10:50;100316.72;;;23.88;33.24
77250;BME280;66287;42.658;27.568;2023-03-20T15:13:17;100319.91;;;23.66;33.31
77250;BME280;66287;42.658;27.568;2023-03-20T15:15:59;100316.16;;;23.52;34.32
77250;BME280;66287;42.658;27.568;2023-03-20T15:18:27;100318.44;;;23.29;34.09
77250;BME280;66287;42.658;27.568;2023-03-20T15:20:55;100320.75;;;23.12;33.97
77250;BME280;66287;42.658;27.568;2023-03-20T15:23:20;100317.72;;;23.09;35.48
77250;BME280;66287;42.658;27.568;2023-03-20T15:25:46;100303.66;;;22.95;35.46
77250;BME280;66287;42.658;27.568;2023-03-20T15:28:15;100310.59;;;22.82;35.33
77250;BME280;66287;42.658;27.568;2023-03-20T15:30:42;100306.78;;;22.58;35.86